KPVC

Provincetown Municipal Airport

Provincetown, Massachusetts, USA
METAR KPVC 211356Z AUTO 31009KT 10SM CLR 14/11 A3017 RMK AO2 SLP216 T01440106
Observed Flight Rules
May-21 @ 13:56 UTC (an hour ago) Visual Flight Rules
Wind Visibility Clouds
310° at 9 knots 10 miles
  • Clear skies
Temperatures Readings
Current 14°C / 57°F
Dewpoint 11°C / 52°F
Humidity 82%
Altimeter 30.17" Hg
Pressure 1021.6 hPa
Elevation 2
METAR KPVC 211356Z AUTO 31009KT 10SM CLR 14/11 A3017 RMK AO2 SLP216 T01440106
Observed Flight Rules
May-21 @ 13:56 UTC
(an hour ago)
VFR
Wind Visibility
310° at 9 knots 10 miles
Clouds
  • Clear skies
Temperature Dewpoint
14°C / 57°F 11°C / 52°F
Humidity Altimeter Pressure
82% 30.17" Hg 1021.6 hPa